sensor_id;sensor_type;location;lat;lon;timestamp;P1;durP1;ratioP1;P2;durP2;ratioP2
71606;SDS011;60641;53.556;9.914;2023-08-21T00:00:28;10.40;;;2.80;;
71606;SDS011;60641;53.556;9.914;2023-08-21T00:03:14;8.70;;;2.70;;
71606;SDS011;60641;53.556;9.914;2023-08-21T00:05:41;11.70;;;2.80;;
71606;SDS011;60641;53.556;9.914;2023-08-21T00:08:07;10.70;;;2.60;;
71606;SDS011;60641;53.556;9.914;2023-08-21T00:10:36;10.20;;;2.50;;
71606;SDS011;60641;53.556;9.914;2023-08-21T00:13:04;11.20;;;2.80;;
71606;SDS011;60641;53.556;9.914;2023-08-21T00:15:31;9.70;;;2.40;;
71606;SDS011;60641;53.556;9.914;2023-08-21T00:17:57;13.00;;;2.90;;
71606;SDS011;60641;53.556;9.914;2023-08-21T00:20:23;12.10;;;2.90;;
71606;SDS011;60641;53.556;9.914;2023-08-21T00:22:50;12.00;;;3.10;;
71606;SDS011;60641;53.556;9.914;2023-08-21T00:25:16;9.60;;;3.10;;
71606;SDS011;60641;53.556;9.914;2023-08-21T00:27:43;8.90;;;2.70;;
71606;SDS011;60641;53.556;9.914;2023-08-21T00:30:09;10.20;;;2.50;;
71606;SDS011;60641;53.556;9.914;2023-08-21T00:32:36;12.30;;;2.80;;
71606;SDS011;60641;53.556;9.914;2023-08-21T00:35:03;10.00;;;2.40;;
71606;SDS011;60641;53.556;9.914;2023-08-21T00:37:30;8.70;;;2.60;;
71606;SDS011;60641;53.556;9.914;2023-08-21T00:39:56;10.40;;;2.60;;
71606;SDS011;60641;53.556;9.914;2023-08-21T00:42:22;11.80;;;2.60;;
71606;SDS011;60641;53.556;9.914;2023-08-21T00:44:49;11.50;;;3.00;;
71606;SDS011;60641;53.556;9.914;2023-08-21T00:47:15;12.60;;;2.80;;
71606;SDS011;60641;53.556;9.914;2023-08-21T00:49:42;11.10;;;2.90;;
71606;SDS011;60641;53.556;9.914;2023-08-21T00:52:10;8.90;;;2.40;;
71606;SDS011;60641;53.556;9.914;2023-08-21T00:54:37;9.70;;;2.60;;
71606;SDS011;60641;53.556;9.914;2023-08-21T00:57:04;8.80;;;2.60;;
71606;SDS011;60641;53.556;9.914;2023-08-21T00:59:31;9.90;;;2.80;;
71606;SDS011;60641;53.556;9.914;2023-08-21T01:01:57;9.10;;;2.60;;
71606;SDS011;60641;53.556;9.914;2023-08-21T01:04:24;8.00;;;2.50;;
71606;SDS011;60641;53.556;9.914;2023-08-21T01:06:50;10.70;;;2.60;;
71606;SDS011;60641;53.556;9.914;2023-08-21T01:12:08;10.10;;;2.60;;
71606;SDS011;60641;53.556;9.914;2023-08-21T01:14:55;8.80;;;2.30;;
71606;SDS011;60641;53.556;9.914;2023-08-21T01:17:25;8.80;;;2.30;;
71606;SDS011;60641;53.556;9.914;2023-08-21T01:19:52;10.40;;;2.60;;
71606;SDS011;60641;53.556;9.914;2023-08-21T01:22:19;11.70;;;2.60;;
71606;SDS011;60641;53.556;9.914;2023-08-21T01:24:45;9.50;;;2.70;;
71606;SDS011;60641;53.556;9.914;2023-08-21T01:27:12;8.00;;;2.40;;
71606;SDS011;60641;53.556;9.914;2023-08-21T01:29:39;7.60;;;2.60;;
71606;SDS011;60641;53.556;9.914;2023-08-21T01:32:07;11.10;;;2.80;;
71606;SDS011;60641;53.556;9.914;2023-08-21T01:34:37;8.50;;;2.70;;
71606;SDS011;60641;53.556;9.914;2023-08-21T01:37:04;12.10;;;3.10;;
71606;SDS011;60641;53.556;9.914;2023-08-21T01:39:32;12.20;;;2.90;;
71606;SDS011;60641;53.556;9.914;2023-08-21T01:41:59;10.40;;;2.60;;
71606;SDS011;60641;53.556;9.914;2023-08-21T01:44:25;9.60;;;2.80;;
71606;SDS011;60641;53.556;9.914;2023-08-21T01:46:53;12.30;;;2.50;;
71606;SDS011;60641;53.556;9.914;2023-08-21T01:49:19;11.50;;;3.00;;
71606;SDS011;60641;53.556;9.914;2023-08-21T01:51:46;10.00;;;2.90;;
71606;SDS011;60641;53.556;9.914;2023-08-21T01:54:12;10.20;;;2.70;;
71606;SDS011;60641;53.556;9.914;2023-08-21T01:56:39;10.20;;;2.90;;
71606;SDS011;60641;53.556;9.914;2023-08-21T01:59:05;11.40;;;3.00;;
71606;SDS011;60641;53.556;9.914;2023-08-21T02:01:32;9.00;;;3.10;;
71606;SDS011;60641;53.556;9.914;2023-08-21T02:03:59;10.00;;;3.10;;
71606;SDS011;60641;53.556;9.914;2023-08-21T02:06:26;12.50;;;3.20;;
71606;SDS011;60641;53.556;9.914;2023-08-21T02:08:52;10.20;;;2.90;;
71606;SDS011;60641;53.556;9.914;2023-08-21T02:11:19;9.90;;;2.90;;
71606;SDS011;60641;53.556;9.914;2023-08-21T02:13:45;11.30;;;3.00;;
71606;SDS011;60641;53.556;9.914;2023-08-21T02:16:12;10.30;;;2.90;;
71606;SDS011;60641;53.556;9.914;2023-08-21T02:18:38;11.10;;;3.10;;
71606;SDS011;60641;53.556;9.914;2023-08-21T02:21:04;11.60;;;3.30;;
71606;SDS011;60641;53.556;9.914;2023-08-21T02:23:31;11.30;;;3.20;;
71606;SDS011;60641;53.556;9.914;2023-08-21T02:25:58;11.80;;;3.40;;
71606;SDS011;60641;53.556;9.914;2023-08-21T02:28:24;12.80;;;3.60;;
71606;SDS011;60641;53.556;9.914;2023-08-21T02:30:50;9.60;;;3.10;;
71606;SDS011;60641;53.556;9.914;2023-08-21T02:33:17;11.50;;;3.50;;
71606;SDS011;60641;53.556;9.914;2023-08-21T02:35:43;11.80;;;3.40;;
71606;SDS011;60641;53.556;9.914;2023-08-21T02:38:10;10.30;;;2.80;;
71606;SDS011;60641;53.556;9.914;2023-08-21T02:40:36;9.90;;;3.20;;
71606;SDS011;60641;53.556;9.914;2023-08-21T02:43:03;11.30;;;3.20;;
71606;SDS011;60641;53.556;9.914;2023-08-21T02:45:29;8.30;;;3.10;;
71606;SDS011;60641;53.556;9.914;2023-08-21T02:47:56;12.50;;;3.90;;
71606;SDS011;60641;53.556;9.914;2023-08-21T02:50:22;12.10;;;3.30;;
71606;SDS011;60641;53.556;9.914;2023-08-21T02:52:49;10.50;;;3.30;;
71606;SDS011;60641;53.556;9.914;2023-08-21T02:55:15;10.40;;;2.90;;
71606;SDS011;60641;53.556;9.914;2023-08-21T02:57:42;9.40;;;2.80;;
71606;SDS011;60641;53.556;9.914;2023-08-21T03:00:08;9.80;;;3.20;;
71606;SDS011;60641;53.556;9.914;2023-08-21T03:02:35;12.30;;;3.50;;
71606;SDS011;60641;53.556;9.914;2023-08-21T03:05:01;11.80;;;3.30;;
71606;SDS011;60641;53.556;9.914;2023-08-21T03:07:28;9.80;;;3.20;;
71606;SDS011;60641;53.556;9.914;2023-08-21T03:09:54;10.30;;;2.80;;
71606;SDS011;60641;53.556;9.914;2023-08-21T03:12:21;12.00;;;2.80;;
71606;SDS011;60641;53.556;9.914;2023-08-21T03:14:47;8.80;;;2.70;;
71606;SDS011;60641;53.556;9.914;2023-08-21T03:17:14;10.80;;;3.00;;
71606;SDS011;60641;53.556;9.914;2023-08-21T03:19:40;11.80;;;2.90;;
71606;SDS011;60641;53.556;9.914;2023-08-21T03:22:06;9.10;;;2.50;;
71606;SDS011;60641;53.556;9.914;2023-08-21T03:24:33;9.90;;;2.80;;
71606;SDS011;60641;53.556;9.914;2023-08-21T03:26:59;7.10;;;2.40;;
71606;SDS011;60641;53.556;9.914;2023-08-21T03:29:26;8.70;;;2.50;;
71606;SDS011;60641;53.556;9.914;2023-08-21T03:31:53;11.70;;;2.80;;
71606;SDS011;60641;53.556;9.914;2023-08-21T03:34:22;9.60;;;2.20;;
71606;SDS011;60641;53.556;9.914;2023-08-21T03:36:49;9.50;;;2.30;;
71606;SDS011;60641;53.556;9.914;2023-08-21T03:39:15;11.30;;;2.30;;
71606;SDS011;60641;53.556;9.914;2023-08-21T03:41:42;6.70;;;1.70;;
71606;SDS011;60641;53.556;9.914;2023-08-21T03:44:09;10.90;;;2.30;;
71606;SDS011;60641;53.556;9.914;2023-08-21T03:46:35;10.60;;;2.40;;
71606;SDS011;60641;53.556;9.914;2023-08-21T03:49:01;8.90;;;2.50;;
71606;SDS011;60641;53.556;9.914;2023-08-21T03:51:28;8.00;;;2.70;;
71606;SDS011;60641;53.556;9.914;2023-08-21T03:53:54;10.10;;;2.70;;
71606;SDS011;60641;53.556;9.914;2023-08-21T03:56:21;8.90;;;2.60;;
71606;SDS011;60641;53.556;9.914;2023-08-21T03:58:48;8.90;;;2.70;;
71606;SDS011;60641;53.556;9.914;2023-08-21T04:01:14;10.70;;;2.80;;
71606;SDS011;60641;53.556;9.914;2023-08-21T04:03:41;8.30;;;2.90;;
71606;SDS011;60641;53.556;9.914;2023-08-21T04:06:08;10.70;;;3.10;;
71606;SDS011;60641;53.556;9.914;2023-08-21T04:08:34;9.20;;;3.10;;
71606;SDS011;60641;53.556;9.914;2023-08-21T04:11:01;8.90;;;3.10;;
71606;SDS011;60641;53.556;9.914;2023-08-21T04:13:27;9.30;;;3.00;;
71606;SDS011;60641;53.556;9.914;2023-08-21T04:15:54;8.70;;;2.80;;
71606;SDS011;60641;53.556;9.914;2023-08-21T04:18:22;11.10;;;3.20;;
71606;SDS011;60641;53.556;9.914;2023-08-21T04:20:49;11.30;;;2.90;;
71606;SDS011;60641;53.556;9.914;2023-08-21T04:23:16;9.10;;;2.80;;
71606;SDS011;60641;53.556;9.914;2023-08-21T04:25:42;10.50;;;3.00;;
71606;SDS011;60641;53.556;9.914;2023-08-21T04:28:12;9.20;;;2.90;;
71606;SDS011;60641;53.556;9.914;2023-08-21T04:30:39;10.90;;;3.40;;
71606;SDS011;60641;53.556;9.914;2023-08-21T04:33:07;9.00;;;3.00;;
71606;SDS011;60641;53.556;9.914;2023-08-21T04:35:37;7.10;;;2.10;;
71606;SDS011;60641;53.556;9.914;2023-08-21T04:38:04;8.60;;;2.60;;
71606;SDS011;60641;53.556;9.914;2023-08-21T04:40:31;10.20;;;2.40;;
71606;SDS011;60641;53.556;9.914;2023-08-21T04:42:57;10.90;;;2.80;;
71606;SDS011;60641;53.556;9.914;2023-08-21T04:45:24;10.90;;;2.90;;
71606;SDS011;60641;53.556;9.914;2023-08-21T04:47:50;10.70;;;3.00;;
71606;SDS011;60641;53.556;9.914;2023-08-21T04:50:18;9.50;;;3.00;;
71606;SDS011;60641;53.556;9.914;2023-08-21T04:52:46;12.50;;;3.20;;
71606;SDS011;60641;53.556;9.914;2023-08-21T04:55:12;8.80;;;2.90;;
71606;SDS011;60641;53.556;9.914;2023-08-21T04:57:39;9.10;;;2.70;;
71606;SDS011;60641;53.556;9.914;2023-08-21T05:00:05;8.80;;;3.00;;
71606;SDS011;60641;53.556;9.914;2023-08-21T05:02:33;9.80;;;2.90;;
71606;SDS011;60641;53.556;9.914;2023-08-21T05:05:00;10.00;;;2.70;;
71606;SDS011;60641;53.556;9.914;2023-08-21T05:07:27;9.80;;;3.20;;
71606;SDS011;60641;53.556;9.914;2023-08-21T05:09:54;11.90;;;3.20;;
71606;SDS011;60641;53.556;9.914;2023-08-21T05:12:21;9.20;;;2.60;;
71606;SDS011;60641;53.556;9.914;2023-08-21T05:14:47;9.00;;;3.00;;
71606;SDS011;60641;53.556;9.914;2023-08-21T05:17:14;9.70;;;2.70;;
71606;SDS011;60641;53.556;9.914;2023-08-21T05:19:40;7.90;;;2.60;;
71606;SDS011;60641;53.556;9.914;2023-08-21T05:22:06;8.90;;;2.70;;
71606;SDS011;60641;53.556;9.914;2023-08-21T05:24:33;9.40;;;2.80;;
71606;SDS011;60641;53.556;9.914;2023-08-21T05:26:59;11.20;;;3.40;;
71606;SDS011;60641;53.556;9.914;2023-08-21T05:29:26;12.70;;;3.00;;
71606;SDS011;60641;53.556;9.914;2023-08-21T05:31:52;9.40;;;2.70;;
71606;SDS011;60641;53.556;9.914;2023-08-21T05:34:18;9.30;;;2.90;;
71606;SDS011;60641;53.556;9.914;2023-08-21T05:36:45;9.30;;;2.80;;
71606;SDS011;60641;53.556;9.914;2023-08-21T05:39:12;9.20;;;2.60;;
71606;SDS011;60641;53.556;9.914;2023-08-21T05:41:39;10.30;;;2.90;;
71606;SDS011;60641;53.556;9.914;2023-08-21T05:44:05;9.20;;;3.00;;
71606;SDS011;60641;53.556;9.914;2023-08-21T05:46:31;9.00;;;2.80;;
71606;SDS011;60641;53.556;9.914;2023-08-21T05:48:58;8.60;;;2.80;;
71606;SDS011;60641;53.556;9.914;2023-08-21T05:51:25;11.30;;;2.80;;
71606;SDS011;60641;53.556;9.914;2023-08-21T05:53:51;10.30;;;2.80;;
71606;SDS011;60641;53.556;9.914;2023-08-21T05:56:17;13.30;;;3.10;;
71606;SDS011;60641;53.556;9.914;2023-08-21T05:58:44;11.10;;;2.60;;
71606;SDS011;60641;53.556;9.914;2023-08-21T06:01:11;10.20;;;3.00;;
71606;SDS011;60641;53.556;9.914;2023-08-21T06:03:37;10.30;;;2.90;;
71606;SDS011;60641;53.556;9.914;2023-08-21T06:06:04;10.00;;;2.60;;
71606;SDS011;60641;53.556;9.914;2023-08-21T06:08:31;12.60;;;2.70;;
71606;SDS011;60641;53.556;9.914;2023-08-21T06:10:57;11.90;;;2.70;;
71606;SDS011;60641;53.556;9.914;2023-08-21T06:13:24;9.50;;;2.80;;
71606;SDS011;60641;53.556;9.914;2023-08-21T06:15:51;13.80;;;3.10;;
71606;SDS011;60641;53.556;9.914;2023-08-21T06:18:17;13.00;;;3.40;;
71606;SDS011;60641;53.556;9.914;2023-08-21T06:20:44;9.00;;;2.70;;
71606;SDS011;60641;53.556;9.914;2023-08-21T06:23:11;11.40;;;2.60;;
71606;SDS011;60641;53.556;9.914;2023-08-21T06:25:38;13.60;;;2.60;;
71606;SDS011;60641;53.556;9.914;2023-08-21T06:28:04;12.80;;;2.60;;
71606;SDS011;60641;53.556;9.914;2023-08-21T06:30:31;12.10;;;2.80;;
71606;SDS011;60641;53.556;9.914;2023-08-21T06:32:57;9.80;;;2.40;;
71606;SDS011;60641;53.556;9.914;2023-08-21T06:35:25;12.00;;;2.60;;
71606;SDS011;60641;53.556;9.914;2023-08-21T06:37:54;10.50;;;2.20;;
71606;SDS011;60641;53.556;9.914;2023-08-21T06:40:21;11.90;;;2.60;;
71606;SDS011;60641;53.556;9.914;2023-08-21T06:42:47;11.80;;;2.20;;
71606;SDS011;60641;53.556;9.914;2023-08-21T06:45:16;8.10;;;2.30;;
71606;SDS011;60641;53.556;9.914;2023-08-21T06:47:44;10.40;;;1.90;;
71606;SDS011;60641;53.556;9.914;2023-08-21T06:50:11;10.10;;;2.20;;
71606;SDS011;60641;53.556;9.914;2023-08-21T06:52:37;10.80;;;2.30;;
71606;SDS011;60641;53.556;9.914;2023-08-21T06:55:04;11.00;;;2.30;;
71606;SDS011;60641;53.556;9.914;2023-08-21T06:57:31;13.40;;;2.10;;
71606;SDS011;60641;53.556;9.914;2023-08-21T06:59:58;11.40;;;2.00;;
71606;SDS011;60641;53.556;9.914;2023-08-21T07:02:24;13.10;;;2.20;;
71606;SDS011;60641;53.556;9.914;2023-08-21T07:04:51;9.10;;;2.00;;
71606;SDS011;60641;53.556;9.914;2023-08-21T07:07:18;8.20;;;1.60;;
71606;SDS011;60641;53.556;9.914;2023-08-21T07:09:46;11.10;;;2.00;;
71606;SDS011;60641;53.556;9.914;2023-08-21T07:12:12;7.50;;;1.50;;
71606;SDS011;60641;53.556;9.914;2023-08-21T07:14:39;10.80;;;1.90;;
71606;SDS011;60641;53.556;9.914;2023-08-21T07:17:05;10.30;;;1.70;;
71606;SDS011;60641;53.556;9.914;2023-08-21T07:19:32;10.20;;;1.60;;
71606;SDS011;60641;53.556;9.914;2023-08-21T07:21:58;7.20;;;1.60;;
71606;SDS011;60641;53.556;9.914;2023-08-21T07:24:25;6.50;;;1.30;;
71606;SDS011;60641;53.556;9.914;2023-08-21T07:26:51;7.40;;;1.50;;
71606;SDS011;60641;53.556;9.914;2023-08-21T07:29:18;8.50;;;1.60;;
71606;SDS011;60641;53.556;9.914;2023-08-21T07:31:44;8.60;;;1.50;;
71606;SDS011;60641;53.556;9.914;2023-08-21T07:34:11;8.90;;;1.60;;
71606;SDS011;60641;53.556;9.914;2023-08-21T07:36:37;9.70;;;1.90;;
71606;SDS011;60641;53.556;9.914;2023-08-21T07:39:05;7.50;;;1.90;;
71606;SDS011;60641;53.556;9.914;2023-08-21T07:41:31;8.80;;;1.70;;
71606;SDS011;60641;53.556;9.914;2023-08-21T07:43:58;9.80;;;1.60;;
71606;SDS011;60641;53.556;9.914;2023-08-21T07:46:24;9.10;;;1.70;;
71606;SDS011;60641;53.556;9.914;2023-08-21T07:48:52;9.10;;;1.60;;
71606;SDS011;60641;53.556;9.914;2023-08-21T07:51:18;7.60;;;1.50;;
71606;SDS011;60641;53.556;9.914;2023-08-21T07:53:45;9.80;;;1.50;;
71606;SDS011;60641;53.556;9.914;2023-08-21T07:56:11;5.80;;;1.50;;
71606;SDS011;60641;53.556;9.914;2023-08-21T07:58:38;7.30;;;1.50;;
71606;SDS011;60641;53.556;9.914;2023-08-21T08:01:04;8.10;;;1.60;;
71606;SDS011;60641;53.556;9.914;2023-08-21T08:03:31;9.70;;;1.60;;
71606;SDS011;60641;53.556;9.914;2023-08-21T08:05:58;6.70;;;1.10;;
71606;SDS011;60641;53.556;9.914;2023-08-21T08:08:24;8.70;;;1.60;;
71606;SDS011;60641;53.556;9.914;2023-08-21T08:10:51;9.10;;;1.20;;
71606;SDS011;60641;53.556;9.914;2023-08-21T08:13:18;6.50;;;1.30;;
71606;SDS011;60641;53.556;9.914;2023-08-21T08:15:44;5.30;;;1.40;;
71606;SDS011;60641;53.556;9.914;2023-08-21T08:18:12;8.00;;;1.20;;
71606;SDS011;60641;53.556;9.914;2023-08-21T08:20:39;4.80;;;0.90;;
71606;SDS011;60641;53.556;9.914;2023-08-21T08:23:06;9.40;;;1.50;;
71606;SDS011;60641;53.556;9.914;2023-08-21T08:25:33;4.90;;;1.20;;
71606;SDS011;60641;53.556;9.914;2023-08-21T08:27:59;9.00;;;1.30;;
71606;SDS011;60641;53.556;9.914;2023-08-21T08:30:26;10.50;;;1.70;;
71606;SDS011;60641;53.556;9.914;2023-08-21T08:32:53;6.30;;;1.40;;
71606;SDS011;60641;53.556;9.914;2023-08-21T08:35:19;6.80;;;1.30;;
71606;SDS011;60641;53.556;9.914;2023-08-21T08:37:46;7.80;;;1.50;;
71606;SDS011;60641;53.556;9.914;2023-08-21T08:40:12;9.10;;;1.80;;
71606;SDS011;60641;53.556;9.914;2023-08-21T08:42:39;6.70;;;1.10;;
71606;SDS011;60641;53.556;9.914;2023-08-21T08:45:06;5.50;;;1.00;;
71606;SDS011;60641;53.556;9.914;2023-08-21T08:47:33;6.60;;;1.30;;
71606;SDS011;60641;53.556;9.914;2023-08-21T08:50:01;6.30;;;1.20;;
71606;SDS011;60641;53.556;9.914;2023-08-21T08:52:30;5.60;;;1.30;;
71606;SDS011;60641;53.556;9.914;2023-08-21T08:55:01;6.20;;;1.30;;
71606;SDS011;60641;53.556;9.914;2023-08-21T08:57:29;5.10;;;1.20;;
71606;SDS011;60641;53.556;9.914;2023-08-21T08:59:57;5.40;;;1.20;;
71606;SDS011;60641;53.556;9.914;2023-08-21T09:02:24;7.20;;;1.50;;
71606;SDS011;60641;53.556;9.914;2023-08-21T09:04:54;8.00;;;1.30;;
71606;SDS011;60641;53.556;9.914;2023-08-21T09:07:21;7.40;;;1.40;;
71606;SDS011;60641;53.556;9.914;2023-08-21T09:09:48;5.20;;;1.20;;
71606;SDS011;60641;53.556;9.914;2023-08-21T09:12:16;7.00;;;1.40;;
71606;SDS011;60641;53.556;9.914;2023-08-21T09:14:43;5.30;;;1.50;;
71606;SDS011;60641;53.556;9.914;2023-08-21T09:17:10;6.60;;;1.20;;
71606;SDS011;60641;53.556;9.914;2023-08-21T09:19:37;8.10;;;1.40;;
71606;SDS011;60641;53.556;9.914;2023-08-21T09:22:10;7.50;;;1.30;;
71606;SDS011;60641;53.556;9.914;2023-08-21T09:24:39;6.30;;;1.50;;
71606;SDS011;60641;53.556;9.914;2023-08-21T09:27:12;6.40;;;1.30;;
71606;SDS011;60641;53.556;9.914;2023-08-21T09:29:40;6.90;;;1.50;;
71606;SDS011;60641;53.556;9.914;2023-08-21T09:32:07;6.90;;;1.70;;
71606;SDS011;60641;53.556;9.914;2023-08-21T09:34:37;5.80;;;1.40;;
71606;SDS011;60641;53.556;9.914;2023-08-21T09:37:07;6.40;;;1.30;;
71606;SDS011;60641;53.556;9.914;2023-08-21T09:39:34;7.10;;;1.70;;
71606;SDS011;60641;53.556;9.914;2023-08-21T09:42:04;8.00;;;2.30;;
71606;SDS011;60641;53.556;9.914;2023-08-21T09:44:38;6.00;;;1.60;;
71606;SDS011;60641;53.556;9.914;2023-08-21T09:47:11;6.80;;;1.50;;
71606;SDS011;60641;53.556;9.914;2023-08-21T09:49:38;5.90;;;1.30;;
71606;SDS011;60641;53.556;9.914;2023-08-21T09:52:06;5.40;;;1.40;;
71606;SDS011;60641;53.556;9.914;2023-08-21T09:54:33;5.20;;;1.60;;
71606;SDS011;60641;53.556;9.914;2023-08-21T09:57:01;6.90;;;1.20;;
71606;SDS011;60641;53.556;9.914;2023-08-21T09:59:29;5.00;;;1.60;;
71606;SDS011;60641;53.556;9.914;2023-08-21T10:01:59;7.30;;;1.50;;
71606;SDS011;60641;53.556;9.914;2023-08-21T10:04:27;6.20;;;1.40;;
71606;SDS011;60641;53.556;9.914;2023-08-21T10:06:56;6.10;;;1.20;;
71606;SDS011;60641;53.556;9.914;2023-08-21T10:09:23;4.50;;;1.10;;
71606;SDS011;60641;53.556;9.914;2023-08-21T10:11:52;4.80;;;1.00;;
71606;SDS011;60641;53.556;9.914;2023-08-21T10:14:21;4.10;;;0.90;;
71606;SDS011;60641;53.556;9.914;2023-08-21T10:16:49;4.90;;;1.00;;
71606;SDS011;60641;53.556;9.914;2023-08-21T10:19:17;4.30;;;1.10;;
71606;SDS011;60641;53.556;9.914;2023-08-21T10:21:46;7.10;;;1.40;;
71606;SDS011;60641;53.556;9.914;2023-08-21T10:24:25;5.10;;;1.10;;
71606;SDS011;60641;53.556;9.914;2023-08-21T10:26:53;5.00;;;1.20;;
71606;SDS011;60641;53.556;9.914;2023-08-21T10:29:20;5.50;;;1.30;;
71606;SDS011;60641;53.556;9.914;2023-08-21T10:31:46;3.90;;;1.00;;
71606;SDS011;60641;53.556;9.914;2023-08-21T10:34:31;5.30;;;1.10;;
71606;SDS011;60641;53.556;9.914;2023-08-21T10:37:06;3.60;;;0.90;;
71606;SDS011;60641;53.556;9.914;2023-08-21T10:39:36;5.30;;;1.10;;
71606;SDS011;60641;53.556;9.914;2023-08-21T10:42:06;7.10;;;1.40;;
71606;SDS011;60641;53.556;9.914;2023-08-21T10:44:52;5.80;;;1.40;;
71606;SDS011;60641;53.556;9.914;2023-08-21T10:55:03;4.70;;;1.10;;
71606;SDS011;60641;53.556;9.914;2023-08-21T10:57:31;4.60;;;1.20;;
71606;SDS011;60641;53.556;9.914;2023-08-21T10:59:59;8.30;;;1.50;;
71606;SDS011;60641;53.556;9.914;2023-08-21T11:02:27;5.20;;;1.20;;
71606;SDS011;60641;53.556;9.914;2023-08-21T11:04:57;5.40;;;1.10;;
71606;SDS011;60641;53.556;9.914;2023-08-21T11:07:25;4.30;;;1.20;;
71606;SDS011;60641;53.556;9.914;2023-08-21T11:09:52;5.60;;;1.20;;
71606;SDS011;60641;53.556;9.914;2023-08-21T11:12:23;4.40;;;1.30;;
71606;SDS011;60641;53.556;9.914;2023-08-21T11:14:51;5.10;;;1.20;;
71606;SDS011;60641;53.556;9.914;2023-08-21T11:17:19;4.80;;;1.40;;
71606;SDS011;60641;53.556;9.914;2023-08-21T11:19:46;7.80;;;1.20;;
71606;SDS011;60641;53.556;9.914;2023-08-21T11:22:17;6.70;;;1.30;;
71606;SDS011;60641;53.556;9.914;2023-08-21T11:24:44;4.70;;;1.10;;
71606;SDS011;60641;53.556;9.914;2023-08-21T11:27:15;6.00;;;1.30;;
71606;SDS011;60641;53.556;9.914;2023-08-21T11:29:47;7.20;;;1.30;;
71606;SDS011;60641;53.556;9.914;2023-08-21T11:32:16;4.70;;;1.10;;
71606;SDS011;60641;53.556;9.914;2023-08-21T11:34:49;5.50;;;1.30;;
71606;SDS011;60641;53.556;9.914;2023-08-21T11:37:24;5.70;;;1.40;;
71606;SDS011;60641;53.556;9.914;2023-08-21T11:39:55;5.30;;;1.30;;
71606;SDS011;60641;53.556;9.914;2023-08-21T11:42:30;7.10;;;1.40;;
71606;SDS011;60641;53.556;9.914;2023-08-21T11:45:02;5.70;;;1.50;;
71606;SDS011;60641;53.556;9.914;2023-08-21T11:47:35;4.90;;;1.20;;
71606;SDS011;60641;53.556;9.914;2023-08-21T11:50:05;7.80;;;1.90;;
71606;SDS011;60641;53.556;9.914;2023-08-21T11:52:33;5.60;;;1.50;;
71606;SDS011;60641;53.556;9.914;2023-08-21T11:55:01;7.00;;;1.20;;
71606;SDS011;60641;53.556;9.914;2023-08-21T11:57:28;5.40;;;1.30;;
71606;SDS011;60641;53.556;9.914;2023-08-21T11:59:56;6.30;;;1.20;;
71606;SDS011;60641;53.556;9.914;2023-08-21T12:02:32;4.60;;;1.20;;
71606;SDS011;60641;53.556;9.914;2023-08-21T12:05:04;5.50;;;1.00;;
71606;SDS011;60641;53.556;9.914;2023-08-21T12:07:32;6.10;;;1.30;;
71606;SDS011;60641;53.556;9.914;2023-08-21T12:09:59;8.10;;;1.40;;
71606;SDS011;60641;53.556;9.914;2023-08-21T12:12:26;6.80;;;1.30;;
71606;SDS011;60641;53.556;9.914;2023-08-21T12:14:52;6.40;;;1.30;;
71606;SDS011;60641;53.556;9.914;2023-08-21T12:17:20;6.40;;;1.30;;
71606;SDS011;60641;53.556;9.914;2023-08-21T12:19:47;7.90;;;1.20;;
71606;SDS011;60641;53.556;9.914;2023-08-21T12:22:13;4.90;;;1.20;;
71606;SDS011;60641;53.556;9.914;2023-08-21T12:24:40;6.50;;;1.40;;
71606;SDS011;60641;53.556;9.914;2023-08-21T12:27:07;8.90;;;2.10;;
71606;SDS011;60641;53.556;9.914;2023-08-21T12:29:34;5.10;;;1.30;;
71606;SDS011;60641;53.556;9.914;2023-08-21T12:32:01;4.80;;;1.30;;
71606;SDS011;60641;53.556;9.914;2023-08-21T12:34:29;5.90;;;1.30;;
71606;SDS011;60641;53.556;9.914;2023-08-21T12:36:55;4.40;;;1.10;;
71606;SDS011;60641;53.556;9.914;2023-08-21T12:39:22;4.50;;;1.10;;
71606;SDS011;60641;53.556;9.914;2023-08-21T12:41:49;5.50;;;1.70;;
71606;SDS011;60641;53.556;9.914;2023-08-21T12:44:16;8.50;;;1.20;;
71606;SDS011;60641;53.556;9.914;2023-08-21T12:46:43;4.60;;;1.10;;
71606;SDS011;60641;53.556;9.914;2023-08-21T12:49:11;5.30;;;1.20;;
71606;SDS011;60641;53.556;9.914;2023-08-21T12:51:37;5.20;;;1.10;;
71606;SDS011;60641;53.556;9.914;2023-08-21T12:54:04;4.90;;;1.30;;
71606;SDS011;60641;53.556;9.914;2023-08-21T12:56:31;5.70;;;1.20;;
71606;SDS011;60641;53.556;9.914;2023-08-21T12:58:57;4.80;;;1.20;;
71606;SDS011;60641;53.556;9.914;2023-08-21T13:01:25;4.90;;;1.10;;
71606;SDS011;60641;53.556;9.914;2023-08-21T13:03:51;5.40;;;1.10;;
71606;SDS011;60641;53.556;9.914;2023-08-21T13:06:18;4.70;;;1.30;;
71606;SDS011;60641;53.556;9.914;2023-08-21T13:08:44;5.50;;;1.50;;
71606;SDS011;60641;53.556;9.914;2023-08-21T13:11:11;4.60;;;1.00;;
71606;SDS011;60641;53.556;9.914;2023-08-21T13:13:37;7.20;;;1.20;;
71606;SDS011;60641;53.556;9.914;2023-08-21T13:16:04;4.30;;;0.90;;
71606;SDS011;60641;53.556;9.914;2023-08-21T13:18:31;4.50;;;1.20;;
71606;SDS011;60641;53.556;9.914;2023-08-21T13:20:57;3.80;;;1.00;;
71606;SDS011;60641;53.556;9.914;2023-08-21T13:23:24;4.70;;;1.10;;
71606;SDS011;60641;53.556;9.914;2023-08-21T13:25:50;4.30;;;1.20;;
71606;SDS011;60641;53.556;9.914;2023-08-21T13:28:17;4.90;;;1.20;;
71606;SDS011;60641;53.556;9.914;2023-08-21T13:30:43;4.80;;;1.20;;
71606;SDS011;60641;53.556;9.914;2023-08-21T13:33:10;7.30;;;1.30;;
71606;SDS011;60641;53.556;9.914;2023-08-21T13:35:36;4.10;;;1.10;;
71606;SDS011;60641;53.556;9.914;2023-08-21T13:38:03;4.10;;;1.10;;
71606;SDS011;60641;53.556;9.914;2023-08-21T13:40:30;5.40;;;1.30;;
71606;SDS011;60641;53.556;9.914;2023-08-21T13:42:56;6.10;;;1.20;;
71606;SDS011;60641;53.556;9.914;2023-08-21T13:45:24;3.90;;;1.20;;
71606;SDS011;60641;53.556;9.914;2023-08-21T13:47:50;6.00;;;1.30;;
71606;SDS011;60641;53.556;9.914;2023-08-21T13:50:17;4.60;;;1.20;;
71606;SDS011;60641;53.556;9.914;2023-08-21T13:52:45;5.80;;;1.20;;
71606;SDS011;60641;53.556;9.914;2023-08-21T13:55:12;4.70;;;1.20;;
71606;SDS011;60641;53.556;9.914;2023-08-21T13:57:39;3.90;;;1.10;;
71606;SDS011;60641;53.556;9.914;2023-08-21T14:00:07;6.60;;;1.30;;
71606;SDS011;60641;53.556;9.914;2023-08-21T14:02:38;3.40;;;1.20;;
71606;SDS011;60641;53.556;9.914;2023-08-21T14:05:08;5.30;;;1.70;;
71606;SDS011;60641;53.556;9.914;2023-08-21T14:07:36;4.70;;;1.10;;
71606;SDS011;60641;53.556;9.914;2023-08-21T14:10:03;5.80;;;1.70;;
71606;SDS011;60641;53.556;9.914;2023-08-21T14:12:31;4.40;;;1.10;;
71606;SDS011;60641;53.556;9.914;2023-08-21T14:14:58;4.50;;;1.20;;
71606;SDS011;60641;53.556;9.914;2023-08-21T14:17:25;5.40;;;1.40;;
71606;SDS011;60641;53.556;9.914;2023-08-21T14:19:52;3.30;;;1.30;;
71606;SDS011;60641;53.556;9.914;2023-08-21T14:22:19;4.60;;;1.20;;
71606;SDS011;60641;53.556;9.914;2023-08-21T14:24:45;4.80;;;1.40;;
71606;SDS011;60641;53.556;9.914;2023-08-21T14:27:12;7.10;;;1.60;;
71606;SDS011;60641;53.556;9.914;2023-08-21T14:29:38;5.60;;;1.60;;
71606;SDS011;60641;53.556;9.914;2023-08-21T14:32:05;4.20;;;1.30;;
71606;SDS011;60641;53.556;9.914;2023-08-21T14:34:31;5.50;;;1.40;;
71606;SDS011;60641;53.556;9.914;2023-08-21T14:36:58;4.70;;;1.20;;
71606;SDS011;60641;53.556;9.914;2023-08-21T14:39:25;3.20;;;1.10;;
71606;SDS011;60641;53.556;9.914;2023-08-21T14:41:55;4.60;;;1.30;;
71606;SDS011;60641;53.556;9.914;2023-08-21T14:44:23;4.30;;;1.30;;
71606;SDS011;60641;53.556;9.914;2023-08-21T14:46:52;4.50;;;1.00;;
71606;SDS011;60641;53.556;9.914;2023-08-21T14:49:19;4.40;;;1.10;;
71606;SDS011;60641;53.556;9.914;2023-08-21T14:51:45;4.40;;;1.30;;
71606;SDS011;60641;53.556;9.914;2023-08-21T14:54:12;4.40;;;1.20;;